sensor_id;sensor_type;location;lat;lon;timestamp;pressure;altitude;pressure_sealevel;temperature;humidity
55466;BME280;41329;41.594;23.810;2022-08-25T00:02:12;95014.31;;;21.05;72.35
55466;BME280;41329;41.594;23.810;2022-08-25T00:04:38;95048.25;;;21.27;72.58
55466;BME280;41329;41.594;23.810;2022-08-25T00:07:06;95040.56;;;21.15;72.51
55466;BME280;41329;41.594;23.810;2022-08-25T00:09:32;95053.84;;;20.86;73.26
55466;BME280;41329;41.594;23.810;2022-08-25T00:11:59;95075.38;;;20.92;74.05
55466;BME280;41329;41.594;23.810;2022-08-25T00:14:29;95079.56;;;21.00;74.02
55466;BME280;41329;41.594;23.810;2022-08-25T00:16:55;95053.47;;;21.00;73.97
55466;BME280;41329;41.594;23.810;2022-08-25T00:19:25;95045.94;;;20.97;74.07
55466;BME280;41329;41.594;23.810;2022-08-25T00:21:51;95027.00;;;20.97;74.20
55466;BME280;41329;41.594;23.810;2022-08-25T00:24:17;95031.31;;;21.02;73.86
55466;BME280;41329;41.594;23.810;2022-08-25T00:26:45;95015.31;;;20.99;74.05
55466;BME280;41329;41.594;23.810;2022-08-25T00:29:11;95023.56;;;21.06;74.05
55466;BME280;41329;41.594;23.810;2022-08-25T00:31:38;95001.91;;;20.90;74.25
55466;BME280;41329;41.594;23.810;2022-08-25T00:34:08;95019.41;;;20.82;75.06
55466;BME280;41329;41.594;23.810;2022-08-25T00:36:35;95028.78;;;20.63;76.48
55466;BME280;41329;41.594;23.810;2022-08-25T00:39:02;95022.56;;;20.55;76.97
55466;BME280;41329;41.594;23.810;2022-08-25T00:41:28;95024.34;;;20.49;77.20
55466;BME280;41329;41.594;23.810;2022-08-25T00:43:56;95018.63;;;20.53;77.13
55466;BME280;41329;41.594;23.810;2022-08-25T00:46:36;95019.31;;;20.57;76.72
55466;BME280;41329;41.594;23.810;2022-08-25T00:49:06;95026.50;;;20.58;76.97
55466;BME280;41329;41.594;23.810;2022-08-25T00:51:46;95024.78;;;20.48;77.02
55466;BME280;41329;41.594;23.810;2022-08-25T00:54:29;95002.41;;;20.44;76.83
55466;BME280;41329;41.594;23.810;2022-08-25T00:56:58;95024.22;;;20.53;77.06
55466;BME280;41329;41.594;23.810;2022-08-25T00:59:25;95023.91;;;20.51;77.16
55466;BME280;41329;41.594;23.810;2022-08-25T01:01:52;95014.91;;;20.56;77.10
55466;BME280;41329;41.594;23.810;2022-08-25T01:04:18;95002.88;;;20.55;76.87
55466;BME280;41329;41.594;23.810;2022-08-25T01:06:44;95003.25;;;20.57;77.13
55466;BME280;41329;41.594;23.810;2022-08-25T01:09:11;95002.59;;;20.66;76.72
55466;BME280;41329;41.594;23.810;2022-08-25T01:11:39;94983.34;;;20.64;76.61
55466;BME280;41329;41.594;23.810;2022-08-25T01:14:04;95006.09;;;20.70;76.67
55466;BME280;41329;41.594;23.810;2022-08-25T01:16:36;94998.56;;;20.67;76.72
55466;BME280;41329;41.594;23.810;2022-08-25T01:19:03;94992.47;;;20.68;76.74
55466;BME280;41329;41.594;23.810;2022-08-25T01:21:37;94999.47;;;20.76;76.96
55466;BME280;41329;41.594;23.810;2022-08-25T01:24:04;95009.28;;;20.84;76.71
55466;BME280;41329;41.594;23.810;2022-08-25T01:26:33;95013.34;;;20.83;76.53
55466;BME280;41329;41.594;23.810;2022-08-25T01:29:01;95005.00;;;20.80;76.66
55466;BME280;41329;41.594;23.810;2022-08-25T01:31:50;95003.56;;;20.88;76.54
55466;BME280;41329;41.594;23.810;2022-08-25T01:34:17;94985.66;;;20.82;76.60
55466;BME280;41329;41.594;23.810;2022-08-25T01:36:44;94989.59;;;20.84;76.51
55466;BME280;41329;41.594;23.810;2022-08-25T01:39:10;94986.72;;;20.88;76.58
55466;BME280;41329;41.594;23.810;2022-08-25T01:41:58;94980.47;;;20.80;76.48
55466;BME280;41329;41.594;23.810;2022-08-25T01:44:27;94972.47;;;20.79;76.96
55466;BME280;41329;41.594;23.810;2022-08-25T01:46:53;94976.78;;;20.83;76.96
55466;BME280;41329;41.594;23.810;2022-08-25T01:49:19;94975.53;;;20.84;77.02
55466;BME280;41329;41.594;23.810;2022-08-25T01:52:00;94971.84;;;20.87;76.71
55466;BME280;41329;41.594;23.810;2022-08-25T01:54:26;94989.69;;;20.97;76.55
55466;BME280;41329;41.594;23.810;2022-08-25T01:56:51;94973.84;;;20.74;76.67
55466;BME280;41329;41.594;23.810;2022-08-25T01:59:19;94982.16;;;20.78;76.79
55466;BME280;41329;41.594;23.810;2022-08-25T02:01:45;94998.41;;;20.86;76.59
55466;BME280;41329;41.594;23.810;2022-08-25T02:04:10;94990.47;;;20.69;76.73
55466;BME280;41329;41.594;23.810;2022-08-25T02:06:37;95009.25;;;20.72;77.16
55466;BME280;41329;41.594;23.810;2022-08-25T02:09:09;95015.56;;;20.76;77.45
55466;BME280;41329;41.594;23.810;2022-08-25T02:11:36;95018.28;;;20.79;77.50
55466;BME280;41329;41.594;23.810;2022-08-25T02:14:04;95033.13;;;20.80;77.59
55466;BME280;41329;41.594;23.810;2022-08-25T02:16:32;95030.31;;;20.80;78.01
55466;BME280;41329;41.594;23.810;2022-08-25T02:19:01;95043.69;;;20.76;77.77
55466;BME280;41329;41.594;23.810;2022-08-25T02:21:27;95037.63;;;20.77;78.11
55466;BME280;41329;41.594;23.810;2022-08-25T02:23:54;95020.69;;;20.65;78.29
55466;BME280;41329;41.594;23.810;2022-08-25T02:26:21;95038.31;;;20.81;78.58
55466;BME280;41329;41.594;23.810;2022-08-25T02:28:47;95036.81;;;20.77;78.29
55466;BME280;41329;41.594;23.810;2022-08-25T02:31:15;95034.34;;;20.79;77.83
55466;BME280;41329;41.594;23.810;2022-08-25T02:33:40;95048.06;;;20.93;77.79
55466;BME280;41329;41.594;23.810;2022-08-25T02:36:06;95055.72;;;20.76;78.12
55466;BME280;41329;41.594;23.810;2022-08-25T02:38:32;95055.91;;;20.69;78.68
55466;BME280;41329;41.594;23.810;2022-08-25T02:40:59;95059.72;;;20.63;78.97
55466;BME280;41329;41.594;23.810;2022-08-25T02:43:25;95046.94;;;20.74;78.63
55466;BME280;41329;41.594;23.810;2022-08-25T02:45:52;95008.31;;;20.62;78.47
55466;BME280;41329;41.594;23.810;2022-08-25T02:48:18;95023.22;;;20.75;78.28
55466;BME280;41329;41.594;23.810;2022-08-25T02:50:48;95016.78;;;20.75;78.31
55466;BME280;41329;41.594;23.810;2022-08-25T02:53:16;95021.88;;;20.80;78.29
55466;BME280;41329;41.594;23.810;2022-08-25T02:55:41;95024.41;;;20.90;78.12
55466;BME280;41329;41.594;23.810;2022-08-25T02:58:07;95027.44;;;20.96;78.09
55466;BME280;41329;41.594;23.810;2022-08-25T03:00:34;95025.81;;;20.98;77.78
55466;BME280;41329;41.594;23.810;2022-08-25T03:02:59;95022.53;;;21.00;77.71
55466;BME280;41329;41.594;23.810;2022-08-25T03:05:25;95023.06;;;20.95;77.77
55466;BME280;41329;41.594;23.810;2022-08-25T03:07:50;95000.28;;;20.77;78.43
55466;BME280;41329;41.594;23.810;2022-08-25T03:10:16;95017.25;;;20.73;78.67
55466;BME280;41329;41.594;23.810;2022-08-25T03:12:43;95015.22;;;20.74;78.74
55466;BME280;41329;41.594;23.810;2022-08-25T03:15:11;95008.50;;;20.84;78.45
55466;BME280;41329;41.594;23.810;2022-08-25T03:17:36;95004.34;;;20.88;78.33
55466;BME280;41329;41.594;23.810;2022-08-25T03:20:05;94991.28;;;20.82;78.20
55466;BME280;41329;41.594;23.810;2022-08-25T03:22:31;95006.63;;;20.93;78.33
55466;BME280;41329;41.594;23.810;2022-08-25T03:24:56;94979.72;;;20.80;78.01
55466;BME280;41329;41.594;23.810;2022-08-25T03:27:41;94988.03;;;20.83;78.21
55466;BME280;41329;41.594;23.810;2022-08-25T03:30:08;94978.78;;;20.83;77.87
55466;BME280;41329;41.594;23.810;2022-08-25T03:32:33;94971.97;;;20.84;77.73
55466;BME280;41329;41.594;23.810;2022-08-25T03:34:59;94978.19;;;20.91;77.74
55466;BME280;41329;41.594;23.810;2022-08-25T03:37:26;94983.69;;;20.95;77.49
55466;BME280;41329;41.594;23.810;2022-08-25T03:39:51;94982.44;;;20.96;77.22
55466;BME280;41329;41.594;23.810;2022-08-25T03:42:17;94976.81;;;20.96;77.17
55466;BME280;41329;41.594;23.810;2022-08-25T03:44:42;94972.00;;;20.96;77.17
55466;BME280;41329;41.594;23.810;2022-08-25T03:47:08;94976.06;;;20.95;77.15
55466;BME280;41329;41.594;23.810;2022-08-25T03:49:33;94960.25;;;20.85;76.82
55466;BME280;41329;41.594;23.810;2022-08-25T03:51:59;94949.53;;;20.80;77.00
55466;BME280;41329;41.594;23.810;2022-08-25T03:54:25;94965.78;;;20.89;76.87
55466;BME280;41329;41.594;23.810;2022-08-25T03:56:51;94937.84;;;20.69;76.78
55466;BME280;41329;41.594;23.810;2022-08-25T03:59:17;94933.97;;;20.63;77.02
55466;BME280;41329;41.594;23.810;2022-08-25T04:01:43;94961.78;;;20.74;77.32
55466;BME280;41329;41.594;23.810;2022-08-25T04:04:10;94939.72;;;20.60;77.34
55466;BME280;41329;41.594;23.810;2022-08-25T04:06:37;94956.47;;;20.63;77.65
55466;BME280;41329;41.594;23.810;2022-08-25T04:09:03;94958.50;;;20.63;77.53
55466;BME280;41329;41.594;23.810;2022-08-25T04:11:29;94943.28;;;20.48;77.47
55466;BME280;41329;41.594;23.810;2022-08-25T04:13:56;94956.16;;;20.61;77.31
55466;BME280;41329;41.594;23.810;2022-08-25T04:16:24;94953.22;;;20.65;76.98
55466;BME280;41329;41.594;23.810;2022-08-25T04:18:51;94938.59;;;20.57;76.71
55466;BME280;41329;41.594;23.810;2022-08-25T04:21:18;94952.09;;;20.62;76.43
55466;BME280;41329;41.594;23.810;2022-08-25T04:23:45;94964.34;;;20.56;76.08
55466;BME280;41329;41.594;23.810;2022-08-25T04:26:24;94947.88;;;20.42;76.25
55466;BME280;41329;41.594;23.810;2022-08-25T04:28:52;94954.38;;;20.39;76.07
55466;BME280;41329;41.594;23.810;2022-08-25T04:31:19;94960.97;;;20.32;76.29
55466;BME280;41329;41.594;23.810;2022-08-25T04:33:46;94962.44;;;20.37;77.04
55466;BME280;41329;41.594;23.810;2022-08-25T04:36:13;94965.50;;;20.42;77.52
55466;BME280;41329;41.594;23.810;2022-08-25T04:38:40;94958.47;;;20.50;77.85
55466;BME280;41329;41.594;23.810;2022-08-25T04:41:08;94974.34;;;20.57;77.70
55466;BME280;41329;41.594;23.810;2022-08-25T04:43:35;94964.22;;;20.59;77.98
55466;BME280;41329;41.594;23.810;2022-08-25T04:46:09;94970.53;;;20.63;78.23
55466;BME280;41329;41.594;23.810;2022-08-25T04:48:36;94959.72;;;20.62;78.10
55466;BME280;41329;41.594;23.810;2022-08-25T04:51:06;94955.59;;;20.66;77.87
55466;BME280;41329;41.594;23.810;2022-08-25T04:53:33;94954.94;;;20.75;77.94
55466;BME280;41329;41.594;23.810;2022-08-25T04:55:59;94913.50;;;20.50;78.03
55466;BME280;41329;41.594;23.810;2022-08-25T04:58:25;94956.72;;;20.69;77.38
55466;BME280;41329;41.594;23.810;2022-08-25T05:00:51;94935.03;;;20.69;77.57
55466;BME280;41329;41.594;23.810;2022-08-25T05:03:17;94928.84;;;20.74;78.03
55466;BME280;41329;41.594;23.810;2022-08-25T05:05:42;94942.03;;;20.90;78.08
55466;BME280;41329;41.594;23.810;2022-08-25T05:08:08;94937.28;;;20.87;78.26
55466;BME280;41329;41.594;23.810;2022-08-25T05:10:38;94940.19;;;20.99;77.96
55466;BME280;41329;41.594;23.810;2022-08-25T05:13:04;94938.59;;;21.11;78.19
55466;BME280;41329;41.594;23.810;2022-08-25T05:15:29;94925.09;;;21.18;78.35
55466;BME280;41329;41.594;23.810;2022-08-25T05:18:15;94921.28;;;21.25;77.95
55466;BME280;41329;41.594;23.810;2022-08-25T05:20:40;94926.00;;;21.28;77.92
55466;BME280;41329;41.594;23.810;2022-08-25T05:23:06;94920.25;;;21.31;77.64
55466;BME280;41329;41.594;23.810;2022-08-25T05:25:32;94910.94;;;21.34;77.99
55466;BME280;41329;41.594;23.810;2022-08-25T05:27:57;94920.59;;;21.46;77.92
55466;BME280;41329;41.594;23.810;2022-08-25T05:30:23;94916.56;;;21.47;77.39
55466;BME280;41329;41.594;23.810;2022-08-25T05:32:49;94905.19;;;21.38;76.62
55466;BME280;41329;41.594;23.810;2022-08-25T05:35:14;94908.00;;;21.38;76.38
55466;BME280;41329;41.594;23.810;2022-08-25T05:37:40;94909.91;;;21.41;76.21
55466;BME280;41329;41.594;23.810;2022-08-25T05:40:06;94901.34;;;21.32;76.27
55466;BME280;41329;41.594;23.810;2022-08-25T05:42:33;94909.22;;;21.37;75.73
55466;BME280;41329;41.594;23.810;2022-08-25T05:44:58;94900.13;;;21.33;76.02
55466;BME280;41329;41.594;23.810;2022-08-25T05:47:24;94911.38;;;21.45;76.18
55466;BME280;41329;41.594;23.810;2022-08-25T05:49:49;94915.09;;;21.42;75.39
55466;BME280;41329;41.594;23.810;2022-08-25T05:52:15;94903.94;;;21.26;75.96
55466;BME280;41329;41.594;23.810;2022-08-25T05:54:41;94917.69;;;21.37;75.40
55466;BME280;41329;41.594;23.810;2022-08-25T05:57:06;94901.47;;;21.28;75.77
55466;BME280;41329;41.594;23.810;2022-08-25T05:59:32;94901.81;;;21.30;75.88
55466;BME280;41329;41.594;23.810;2022-08-25T06:01:57;94917.09;;;21.42;75.70
55466;BME280;41329;41.594;23.810;2022-08-25T06:04:42;94924.00;;;21.53;76.12
55466;BME280;41329;41.594;23.810;2022-08-25T06:07:07;94898.56;;;21.44;75.97
55466;BME280;41329;41.594;23.810;2022-08-25T06:09:33;94913.28;;;21.61;75.55
55466;BME280;41329;41.594;23.810;2022-08-25T06:11:58;94905.75;;;21.70;73.93
55466;BME280;41329;41.594;23.810;2022-08-25T06:14:24;94914.59;;;21.81;74.26
55466;BME280;41329;41.594;23.810;2022-08-25T06:16:50;94910.09;;;21.84;73.72
55466;BME280;41329;41.594;23.810;2022-08-25T06:19:17;94918.75;;;21.89;73.67
55466;BME280;41329;41.594;23.810;2022-08-25T06:21:43;94905.47;;;21.90;72.20
55466;BME280;41329;41.594;23.810;2022-08-25T06:24:08;94905.94;;;21.88;73.30
55466;BME280;41329;41.594;23.810;2022-08-25T06:26:35;94912.09;;;21.96;73.59
55466;BME280;41329;41.594;23.810;2022-08-25T06:29:01;94909.03;;;22.03;73.62
55466;BME280;41329;41.594;23.810;2022-08-25T06:31:27;94905.72;;;22.17;74.31
55466;BME280;41329;41.594;23.810;2022-08-25T06:33:53;94905.78;;;22.26;74.48
55466;BME280;41329;41.594;23.810;2022-08-25T06:36:19;94897.59;;;22.40;73.90
55466;BME280;41329;41.594;23.810;2022-08-25T06:38:45;94907.75;;;22.50;72.44
55466;BME280;41329;41.594;23.810;2022-08-25T06:41:11;94909.63;;;22.53;72.92
55466;BME280;41329;41.594;23.810;2022-08-25T06:43:38;94906.44;;;22.64;72.07
55466;BME280;41329;41.594;23.810;2022-08-25T06:46:12;94895.59;;;22.84;71.81
55466;BME280;41329;41.594;23.810;2022-08-25T06:48:38;94905.41;;;23.01;71.56
55466;BME280;41329;41.594;23.810;2022-08-25T06:51:09;94886.66;;;23.07;72.33
55466;BME280;41329;41.594;23.810;2022-08-25T06:53:35;94902.81;;;23.37;72.94
55466;BME280;41329;41.594;23.810;2022-08-25T06:56:01;94898.63;;;23.51;72.58
55466;BME280;41329;41.594;23.810;2022-08-25T06:58:27;94900.25;;;23.70;72.38
55466;BME280;41329;41.594;23.810;2022-08-25T07:00:53;94899.19;;;23.85;71.62
55466;BME280;41329;41.594;23.810;2022-08-25T07:03:18;94887.91;;;23.94;70.66
55466;BME280;41329;41.594;23.810;2022-08-25T07:05:54;94883.34;;;23.88;69.25
55466;BME280;41329;41.594;23.810;2022-08-25T07:08:21;94891.88;;;23.97;69.14
55466;BME280;41329;41.594;23.810;2022-08-25T07:10:47;94889.38;;;24.08;68.68
55466;BME280;41329;41.594;23.810;2022-08-25T07:13:14;94893.75;;;24.09;67.29
55466;BME280;41329;41.594;23.810;2022-08-25T07:15:41;94879.41;;;23.85;68.29
55466;BME280;41329;41.594;23.810;2022-08-25T07:18:08;94885.59;;;23.93;68.14
55466;BME280;41329;41.594;23.810;2022-08-25T07:20:34;94881.06;;;24.04;69.01
55466;BME280;41329;41.594;23.810;2022-08-25T07:23:00;94877.13;;;24.20;70.50
55466;BME280;41329;41.594;23.810;2022-08-25T07:25:26;94862.19;;;24.10;67.91
55466;BME280;41329;41.594;23.810;2022-08-25T07:27:51;94861.25;;;24.13;69.50
55466;BME280;41329;41.594;23.810;2022-08-25T07:30:17;94876.84;;;24.27;67.59
55466;BME280;41329;41.594;23.810;2022-08-25T07:32:42;94872.56;;;24.31;67.42
55466;BME280;41329;41.594;23.810;2022-08-25T07:35:08;94877.47;;;24.40;65.53
55466;BME280;41329;41.594;23.810;2022-08-25T07:37:42;94868.50;;;24.50;67.52
55466;BME280;41329;41.594;23.810;2022-08-25T07:40:10;94857.00;;;24.54;62.46
55466;BME280;41329;41.594;23.810;2022-08-25T07:42:36;94870.69;;;24.73;63.69
55466;BME280;41329;41.594;23.810;2022-08-25T07:45:02;94864.69;;;24.80;64.14
55466;BME280;41329;41.594;23.810;2022-08-25T07:47:29;94862.03;;;24.86;64.57
55466;BME280;41329;41.594;23.810;2022-08-25T07:49:56;94858.09;;;24.83;64.80
55466;BME280;41329;41.594;23.810;2022-08-25T07:52:21;94865.28;;;25.02;65.68
55466;BME280;41329;41.594;23.810;2022-08-25T07:54:47;94858.63;;;25.14;65.52
55466;BME280;41329;41.594;23.810;2022-08-25T07:57:12;94870.38;;;25.40;66.18
55466;BME280;41329;41.594;23.810;2022-08-25T07:59:39;94872.28;;;25.66;63.87
55466;BME280;41329;41.594;23.810;2022-08-25T08:02:10;94865.44;;;25.82;60.89
55466;BME280;41329;41.594;23.810;2022-08-25T08:04:36;94862.19;;;25.98;62.03
55466;BME280;41329;41.594;23.810;2022-08-25T08:07:02;94848.69;;;26.16;58.67
55466;BME280;41329;41.594;23.810;2022-08-25T08:09:28;94862.22;;;26.21;58.48
55466;BME280;41329;41.594;23.810;2022-08-25T08:11:55;94857.34;;;26.36;59.56
55466;BME280;41329;41.594;23.810;2022-08-25T08:14:22;94861.38;;;26.44;57.95
55466;BME280;41329;41.594;23.810;2022-08-25T08:16:47;94869.53;;;26.51;56.78
55466;BME280;41329;41.594;23.810;2022-08-25T08:19:14;94873.28;;;26.57;55.87
55466;BME280;41329;41.594;23.810;2022-08-25T08:21:40;94858.13;;;26.60;57.11
55466;BME280;41329;41.594;23.810;2022-08-25T08:24:06;94867.72;;;26.63;53.68
55466;BME280;41329;41.594;23.810;2022-08-25T08:26:31;94865.28;;;26.70;56.94
55466;BME280;41329;41.594;23.810;2022-08-25T08:28:57;94844.06;;;26.80;56.41
55466;BME280;41329;41.594;23.810;2022-08-25T08:31:23;94867.66;;;27.01;54.39
55466;BME280;41329;41.594;23.810;2022-08-25T08:33:51;94860.31;;;27.09;52.60
55466;BME280;41329;41.594;23.810;2022-08-25T08:36:17;94854.16;;;27.10;53.88
55466;BME280;41329;41.594;23.810;2022-08-25T08:38:44;94862.00;;;27.30;53.80
55466;BME280;41329;41.594;23.810;2022-08-25T08:41:28;94859.84;;;27.25;49.48
55466;BME280;41329;41.594;23.810;2022-08-25T08:47:25;94860.03;;;27.21;52.88
55466;BME280;41329;41.594;23.810;2022-08-25T08:52:53;94845.06;;;27.21;49.63
55466;BME280;41329;41.594;23.810;2022-08-25T08:55:30;94836.09;;;27.13;50.84
55466;BME280;41329;41.594;23.810;2022-08-25T08:57:59;94822.41;;;27.12;51.25
55466;BME280;41329;41.594;23.810;2022-08-25T09:00:26;94833.56;;;27.44;52.40
55466;BME280;41329;41.594;23.810;2022-08-25T09:03:05;94842.72;;;27.68;49.43
55466;BME280;41329;41.594;23.810;2022-08-25T09:05:42;94838.13;;;27.71;49.08
55466;BME280;41329;41.594;23.810;2022-08-25T09:08:11;94840.66;;;27.69;47.48
55466;BME280;41329;41.594;23.810;2022-08-25T09:10:52;94814.97;;;27.63;47.90
55466;BME280;41329;41.594;23.810;2022-08-25T09:13:26;94787.97;;;27.53;46.43
55466;BME280;41329;41.594;23.810;2022-08-25T09:19:43;94831.75;;;27.61;47.29
55466;BME280;41329;41.594;23.810;2022-08-25T09:22:40;94830.25;;;27.66;48.39
55466;BME280;41329;41.594;23.810;2022-08-25T09:25:17;94822.09;;;27.88;47.57
55466;BME280;41329;41.594;23.810;2022-08-25T09:33:42;94832.72;;;28.08;47.09
55466;BME280;41329;41.594;23.810;2022-08-25T09:36:08;94812.72;;;28.02;45.47
55466;BME280;41329;41.594;23.810;2022-08-25T09:38:33;94822.88;;;28.09;45.92
55466;BME280;41329;41.594;23.810;2022-08-25T09:41:00;94776.88;;;27.90;47.67
55466;BME280;41329;41.594;23.810;2022-08-25T09:43:36;94813.56;;;28.48;47.33
55466;BME280;41329;41.594;23.810;2022-08-25T09:48:33;94809.84;;;28.62;44.79
55466;BME280;41329;41.594;23.810;2022-08-25T09:51:23;94795.50;;;28.77;46.62
55466;BME280;41329;41.594;23.810;2022-08-25T09:56:56;94802.59;;;29.12;43.58
55466;BME280;41329;41.594;23.810;2022-08-25T09:59:29;94808.84;;;29.16;44.66
55466;BME280;41329;41.594;23.810;2022-08-25T10:01:58;94799.75;;;29.12;43.51
55466;BME280;41329;41.594;23.810;2022-08-25T10:04:32;94804.94;;;29.14;44.56
55466;BME280;41329;41.594;23.810;2022-08-25T10:06:59;94807.72;;;29.03;43.91
55466;BME280;41329;41.594;23.810;2022-08-25T10:09:36;94798.13;;;29.06;44.25
55466;BME280;41329;41.594;23.810;2022-08-25T10:12:15;94798.63;;;29.04;43.39
55466;BME280;41329;41.594;23.810;2022-08-25T10:14:42;94800.34;;;28.96;44.25
55466;BME280;41329;41.594;23.810;2022-08-25T10:17:14;94794.16;;;28.98;43.09
55466;BME280;41329;41.594;23.810;2022-08-25T10:19:40;94789.13;;;28.87;41.90
55466;BME280;41329;41.594;23.810;2022-08-25T10:22:10;94789.78;;;28.71;43.38
55466;BME280;41329;41.594;23.810;2022-08-25T10:24:35;94798.16;;;28.80;44.68
55466;BME280;41329;41.594;23.810;2022-08-25T10:29:55;94777.19;;;28.83;42.02
55466;BME280;41329;41.594;23.810;2022-08-25T10:32:30;94777.66;;;28.76;44.48
55466;BME280;41329;41.594;23.810;2022-08-25T10:35:05;94789.75;;;28.97;47.03
55466;BME280;41329;41.594;23.810;2022-08-25T10:43:32;94777.63;;;29.64;38.68
55466;BME280;41329;41.594;23.810;2022-08-25T10:46:36;94783.16;;;29.78;39.02
55466;BME280;41329;41.594;23.810;2022-08-25T10:49:17;94773.22;;;29.63;37.81
55466;BME280;41329;41.594;23.810;2022-08-25T10:52:02;94770.69;;;29.70;38.03
55466;BME280;41329;41.594;23.810;2022-08-25T10:57:33;94763.97;;;30.26;42.17
55466;BME280;41329;41.594;23.810;2022-08-25T11:00:20;94768.75;;;30.57;42.07
55466;BME280;41329;41.594;23.810;2022-08-25T11:06:12;94758.47;;;30.81;38.85
55466;BME280;41329;41.594;23.810;2022-08-25T11:08:50;94763.34;;;30.70;38.97
55466;BME280;41329;41.594;23.810;2022-08-25T11:11:25;94760.16;;;30.40;38.08
55466;BME280;41329;41.594;23.810;2022-08-25T11:16:37;94750.25;;;30.36;38.75
55466;BME280;41329;41.594;23.810;2022-08-25T11:19:18;94747.88;;;30.23;39.77
55466;BME280;41329;41.594;23.810;2022-08-25T11:27:59;94748.31;;;30.11;39.60
55466;BME280;41329;41.594;23.810;2022-08-25T11:30:28;94747.63;;;30.27;40.52
55466;BME280;41329;41.594;23.810;2022-08-25T11:32:54;94751.59;;;30.40;37.23
55466;BME280;41329;41.594;23.810;2022-08-25T11:35:30;94739.91;;;30.44;38.51
55466;BME280;41329;41.594;23.810;2022-08-25T11:41:26;94742.78;;;30.55;38.45
55466;BME280;41329;41.594;23.810;2022-08-25T11:44:03;94742.00;;;30.54;37.97
55466;BME280;41329;41.594;23.810;2022-08-25T11:47:10;94746.13;;;30.48;38.84
55466;BME280;41329;41.594;23.810;2022-08-25T11:55:10;94733.38;;;30.27;38.08
55466;BME280;41329;41.594;23.810;2022-08-25T11:57:41;94716.69;;;30.09;37.82
55466;BME280;41329;41.594;23.810;2022-08-25T12:02:45;94733.28;;;30.10;39.77
55466;BME280;41329;41.594;23.810;2022-08-25T12:10:24;94722.09;;;30.07;36.97
55466;BME280;41329;41.594;23.810;2022-08-25T12:12:57;94720.06;;;30.13;36.88
55466;BME280;41329;41.594;23.810;2022-08-25T12:15:27;94720.19;;;30.46;38.79
55466;BME280;41329;41.594;23.810;2022-08-25T12:18:15;94669.84;;;30.54;36.51
55466;BME280;41329;41.594;23.810;2022-08-25T12:23:42;94713.50;;;31.59;38.95
55466;BME280;41329;41.594;23.810;2022-08-25T12:26:32;94698.13;;;31.78;36.07
55466;BME280;41329;41.594;23.810;2022-08-25T12:31:42;94711.75;;;32.18;36.31
55466;BME280;41329;41.594;23.810;2022-08-25T12:34:39;94685.47;;;32.20;36.86
55466;BME280;41329;41.594;23.810;2022-08-25T12:37:13;94710.31;;;32.47;34.48
55466;BME280;41329;41.594;23.810;2022-08-25T12:47:52;94700.22;;;31.78;34.88
55466;BME280;41329;41.594;23.810;2022-08-25T12:50:38;94718.69;;;31.77;36.06
55466;BME280;41329;41.594;23.810;2022-08-25T12:56:05;94696.59;;;31.55;36.16
55466;BME280;41329;41.594;23.810;2022-08-25T12:58:55;94698.19;;;31.40;36.38
55466;BME280;41329;41.594;23.810;2022-08-25T13:06:41;94712.16;;;30.61;35.55
55466;BME280;41329;41.594;23.810;2022-08-25T13:12:20;94696.28;;;30.43;37.62
55466;BME280;41329;41.594;23.810;2022-08-25T13:14:55;94710.09;;;30.67;38.69
55466;BME280;41329;41.594;23.810;2022-08-25T13:17:31;94711.16;;;30.80;37.72
55466;BME280;41329;41.594;23.810;2022-08-25T13:22:51;94703.16;;;31.06;37.23
55466;BME280;41329;41.594;23.810;2022-08-25T13:25:20;94694.56;;;31.01;37.36
55466;BME280;41329;41.594;23.810;2022-08-25T13:27:57;94706.53;;;31.05;37.68
55466;BME280;41329;41.594;23.810;2022-08-25T13:30:34;94688.31;;;31.08;38.31
55466;BME280;41329;41.594;23.810;2022-08-25T13:33:18;94693.50;;;31.15;36.51
55466;BME280;41329;41.594;23.810;2022-08-25T13:35:55;94699.50;;;31.22;37.29
55466;BME280;41329;41.594;23.810;2022-08-25T13:38:39;94656.38;;;31.15;36.38
55466;BME280;41329;41.594;23.810;2022-08-25T13:41:07;94702.34;;;31.44;38.27
55466;BME280;41329;41.594;23.810;2022-08-25T13:43:34;94706.25;;;31.47;37.67
55466;BME280;41329;41.594;23.810;2022-08-25T13:46:00;94698.44;;;31.42;37.08
55466;BME280;41329;41.594;23.810;2022-08-25T13:48:40;94699.50;;;31.33;34.81
55466;BME280;41329;41.594;23.810;2022-08-25T13:53:48;94693.72;;;31.55;35.02
55466;BME280;41329;41.594;23.810;2022-08-25T13:56:23;94700.78;;;31.43;35.25
55466;BME280;41329;41.594;23.810;2022-08-25T13:58:49;94698.44;;;31.47;34.31
55466;BME280;41329;41.594;23.810;2022-08-25T14:01:19;94682.88;;;31.32;36.04
55466;BME280;41329;41.594;23.810;2022-08-25T14:03:50;94697.94;;;31.32;36.50
55466;BME280;41329;41.594;23.810;2022-08-25T14:08:44;94696.41;;;31.26;36.08
55466;BME280;41329;41.594;23.810;2022-08-25T14:11:32;94692.47;;;31.34;37.00
55466;BME280;41329;41.594;23.810;2022-08-25T14:14:01;94683.38;;;31.41;36.83
55466;BME280;41329;41.594;23.810;2022-08-25T14:16:27;94681.03;;;31.40;36.71
55466;BME280;41329;41.594;23.810;2022-08-25T14:18:56;94688.06;;;31.39;36.33
55466;BME280;41329;41.594;23.810;2022-08-25T14:21:28;94674.81;;;31.25;35.96
55466;BME280;41329;41.594;23.810;2022-08-25T14:23:55;94686.75;;;31.18;35.88
55466;BME280;41329;41.594;23.810;2022-08-25T14:26:22;94672.72;;;31.14;37.26
55466;BME280;41329;41.594;23.810;2022-08-25T14:28:48;94668.81;;;31.12;37.52
55466;BME280;41329;41.594;23.810;2022-08-25T14:34:02;94672.47;;;31.01;36.42
55466;BME280;41329;41.594;23.810;2022-08-25T14:36:28;94670.13;;;31.05;36.99
55466;BME280;41329;41.594;23.810;2022-08-25T14:38:55;94658.97;;;31.13;37.81
55466;BME280;41329;41.594;23.810;2022-08-25T14:41:21;94639.72;;;31.19;38.62